createdAt,value
2023-05-18T00:03:48.858Z,17.64
2023-05-18T00:08:51.649Z,17.50
2023-05-18T00:13:54.116Z,17.73
2023-05-18T00:18:57.062Z,17.14
2023-05-18T00:23:59.498Z,16.20
2023-05-18T00:29:02.029Z,16.44
2023-05-18T00:34:08.179Z,17.04
2023-05-18T00:39:10.971Z,17.18
2023-05-18T00:44:13.370Z,18.20
2023-05-18T00:49:16.226Z,18.46
2023-05-18T00:54:19.791Z,18.20
2023-05-18T00:59:22.528Z,18.23
2023-05-18T01:04:26.318Z,18.17
2023-05-18T01:09:28.736Z,18.30
2023-05-18T01:14:38.608Z,18.24
2023-05-18T01:19:52.681Z,18.25
2023-05-18T01:25:00.291Z,18.21
2023-05-18T01:30:03.694Z,17.99
2023-05-18T01:35:06.950Z,18.04
2023-05-18T01:40:09.913Z,18.11
2023-05-18T01:45:21.028Z,17.86
2023-05-18T01:50:38.243Z,17.78
2023-05-18T01:55:42.070Z,17.31
2023-05-18T02:00:46.564Z,17.31
2023-05-18T02:05:48.907Z,17.06
2023-05-18T02:10:51.894Z,17.58
2023-05-18T02:15:56.577Z,17.85
2023-05-18T02:21:00.368Z,17.43
2023-05-18T02:26:03.108Z,17.24
2023-05-18T02:31:09.882Z,17.05
2023-05-18T02:36:14.038Z,17.11
2023-05-18T02:41:16.354Z,17.48
2023-05-18T02:46:18.699Z,16.94
2023-05-18T02:51:22.330Z,17.20
2023-05-18T02:56:25.200Z,17.21
2023-05-18T03:01:28.005Z,16.59
2023-05-18T03:06:30.830Z,16.82
2023-05-18T03:11:33.208Z,15.00
2023-05-18T03:16:35.622Z,14.49
2023-05-18T03:21:38.074Z,15.60
2023-05-18T03:26:42.291Z,16.25
2023-05-18T03:31:44.815Z,16.86
2023-05-18T03:36:47.824Z,17.08
2023-05-18T03:41:50.156Z,16.81
2023-05-18T03:46:52.526Z,14.36
2023-05-18T03:51:54.936Z,14.39
2023-05-18T03:56:57.281Z,15.28
2023-05-18T04:02:00.638Z,15.71
2023-05-18T04:07:06.480Z,16.22
2023-05-18T04:12:09.205Z,17.09
2023-05-18T04:17:11.602Z,17.01
2023-05-18T04:22:14.017Z,16.90
2023-05-18T04:27:16.439Z,17.30
2023-05-18T04:32:19.294Z,17.46
2023-05-18T04:37:21.618Z,17.47
2023-05-18T04:42:23.848Z,18.01
2023-05-18T04:47:26.163Z,17.98
2023-05-18T04:52:31.221Z,18.00
2023-05-18T04:57:33.571Z,18.20
2023-05-18T05:02:36.149Z,18.29
2023-05-18T05:07:38.665Z,18.40
2023-05-18T05:12:42.166Z,18.50
2023-05-18T05:17:44.506Z,18.46
2023-05-18T05:22:46.939Z,18.59
2023-05-18T05:27:49.275Z,18.72
2023-05-18T05:32:52.214Z,18.94
2023-05-18T05:37:54.540Z,19.16
2023-05-18T05:42:56.857Z,19.11
2023-05-18T05:47:59.274Z,18.74
2023-05-18T05:53:02.023Z,19.10
2023-05-18T05:58:05.921Z,18.96
2023-05-18T06:03:08.764Z,19.73
2023-05-18T06:08:11.111Z,19.70
2023-05-18T06:13:13.427Z,19.97
2023-05-18T06:18:15.837Z,19.90
2023-05-18T06:23:23.069Z,20.35
2023-05-18T06:28:25.430Z,20.50
2023-05-18T06:33:28.957Z,20.16
2023-05-18T06:38:31.874Z,20.22
2023-05-18T06:43:34.218Z,20.55
2023-05-18T06:48:37.682Z,20.79
2023-05-18T06:53:39.981Z,20.80
2023-05-18T06:58:43.168Z,20.92
2023-05-18T07:03:45.708Z,21.07
2023-05-18T07:08:49.188Z,21.22
2023-05-18T07:13:51.804Z,21.50
2023-05-18T07:18:54.095Z,21.34
2023-05-18T07:23:56.403Z,21.20
2023-05-18T07:28:58.871Z,21.55
2023-05-18T07:34:01.372Z,21.67
2023-05-18T07:39:04.007Z,21.49
2023-05-18T07:44:06.283Z,22.01
2023-05-18T07:49:08.568Z,21.92
2023-05-18T07:54:10.894Z,22.30
2023-05-18T07:59:13.466Z,22.34
2023-05-18T08:04:16.202Z,22.49
2023-05-18T08:09:18.567Z,22.48
2023-05-18T08:14:21.213Z,22.76
2023-05-18T08:19:23.593Z,22.93
2023-05-18T08:24:26.078Z,23.11
2023-05-18T08:29:28.492Z,23.12
2023-05-18T08:34:30.936Z,23.35
2023-05-18T08:39:33.398Z,23.50
2023-05-18T08:45:13.440Z,23.40
2023-05-18T08:50:18.340Z,23.11
2023-05-18T08:55:21.390Z,23.74
2023-05-18T09:00:27.256Z,24.09
2023-05-18T09:05:30.241Z,24.51
2023-05-18T09:10:34.165Z,24.65
2023-05-18T09:15:36.443Z,24.87
2023-05-18T09:20:39.222Z,24.55
2023-05-18T09:25:46.429Z,24.98
2023-05-18T09:30:48.655Z,24.61
2023-05-18T09:35:52.718Z,25.06
2023-05-18T09:40:54.979Z,25.04
2023-05-18T09:45:57.562Z,25.57
2023-05-18T09:51:00.340Z,25.93
2023-05-18T09:56:07.119Z,26.27
2023-05-18T10:01:09.432Z,26.39
2023-05-18T10:06:17.782Z,26.32
2023-05-18T10:11:20.892Z,26.51
2023-05-18T10:16:25.973Z,26.49
2023-05-18T10:21:31.564Z,26.73
2023-05-18T10:26:39.242Z,27.13
2023-05-18T10:31:43.247Z,27.17
2023-05-18T10:36:45.656Z,27.60
2023-05-18T10:41:49.726Z,27.70
2023-05-18T10:46:52.644Z,27.86
2023-05-18T10:51:55.599Z,27.38
2023-05-18T10:56:58.165Z,27.08
2023-05-18T11:02:02.596Z,26.87
2023-05-18T11:07:05.621Z,27.39
2023-05-18T11:12:14.590Z,27.36
2023-05-18T11:17:23.317Z,27.40
2023-05-18T11:22:58.802Z,27.02
2023-05-18T11:28:05.085Z,27.66
2023-05-18T11:33:15.268Z,27.78
2023-05-18T11:38:17.880Z,28.09
2023-05-18T11:43:24.590Z,28.20
2023-05-18T11:48:32.564Z,28.09
2023-05-18T11:53:35.551Z,27.78
2023-05-18T11:58:39.106Z,27.32
2023-05-18T12:03:41.567Z,27.25
2023-05-18T12:08:46.447Z,27.62
2023-05-18T12:13:52.384Z,27.65
2023-05-18T12:18:54.874Z,27.23
2023-05-18T12:24:01.047Z,27.27
2023-05-18T12:29:03.590Z,27.16
2023-05-18T12:34:06.891Z,27.14
2023-05-18T12:39:09.367Z,26.78
2023-05-18T12:44:11.687Z,26.24
2023-05-18T12:49:14.044Z,26.43
2023-05-18T12:54:16.583Z,26.56
2023-05-18T12:59:22.188Z,26.50
2023-05-18T13:04:24.639Z,26.62
2023-05-18T13:09:26.841Z,26.56
2023-05-18T13:14:31.288Z,26.31
2023-05-18T13:19:36.437Z,26.37
2023-05-18T13:24:39.525Z,26.42
2023-05-18T13:29:42.333Z,26.05
2023-05-18T13:34:44.552Z,26.23
2023-05-18T13:39:46.687Z,27.34
2023-05-18T13:44:48.960Z,27.32
2023-05-18T13:49:51.169Z,28.23
2023-05-18T13:54:53.416Z,28.88
2023-05-18T13:59:55.593Z,28.80
2023-05-18T14:04:58.905Z,27.85
2023-05-18T14:10:01.095Z,26.88
2023-05-18T14:15:04.278Z,26.87
2023-05-18T14:20:07.304Z,26.44
2023-05-18T14:25:09.739Z,26.43
2023-05-18T14:30:12.443Z,25.76
2023-05-18T14:35:14.675Z,24.99
2023-05-18T14:40:16.965Z,25.03
2023-05-18T14:45:19.250Z,25.04
2023-05-18T14:50:21.512Z,24.66
2023-05-18T14:55:23.684Z,24.87
2023-05-18T15:00:25.966Z,25.03
2023-05-18T15:05:28.254Z,25.19
2023-05-18T15:10:30.653Z,25.57
2023-05-18T15:15:33.598Z,25.98
2023-05-18T15:20:37.113Z,26.13
2023-05-18T15:25:41.681Z,26.26
2023-05-18T15:30:43.879Z,26.16
2023-05-18T15:35:46.924Z,25.87
2023-05-18T15:40:50.759Z,25.78
2023-05-18T15:45:53.909Z,25.72
2023-05-18T15:50:56.078Z,25.71
2023-05-18T15:55:59.589Z,25.43
2023-05-18T16:01:02.063Z,24.82
2023-05-18T16:06:04.446Z,24.73
2023-05-18T16:11:07.453Z,24.47
2023-05-18T16:16:10.825Z,24.44
2023-05-18T16:21:13.688Z,24.17
2023-05-18T16:26:16.099Z,24.01
2023-05-18T16:31:18.283Z,23.97
2023-05-18T16:36:21.328Z,23.98
2023-05-18T16:41:23.678Z,23.99
2023-05-18T16:46:26.145Z,24.05
2023-05-18T16:51:28.358Z,23.82
2023-05-18T16:56:30.592Z,23.73
2023-05-18T17:01:33.647Z,23.56
2023-05-18T17:06:36.494Z,23.15
2023-05-18T17:11:38.695Z,23.22
2023-05-18T17:16:41.456Z,23.06
2023-05-18T17:21:43.792Z,23.20
2023-05-18T17:26:46.024Z,23.19
2023-05-18T17:31:48.302Z,23.11
2023-05-18T17:36:50.590Z,23.20
2023-05-18T17:41:54.538Z,23.03
2023-05-18T17:46:57.482Z,23.09
2023-05-18T17:51:59.843Z,22.73
2023-05-18T17:57:02.228Z,22.50
2023-05-18T18:02:04.645Z,22.35
2023-05-18T18:07:07.372Z,22.09
2023-05-18T18:12:09.741Z,22.18
2023-05-18T18:17:11.984Z,22.33
2023-05-18T18:22:14.277Z,22.22
2023-05-18T18:27:19.818Z,22.25
2023-05-18T18:32:22.181Z,22.26
2023-05-18T18:37:24.348Z,22.09
2023-05-18T18:42:26.529Z,22.17
2023-05-18T18:47:28.896Z,22.03
2023-05-18T18:52:31.235Z,22.13
2023-05-18T18:57:34.193Z,21.72
2023-05-18T19:02:36.622Z,21.77
2023-05-18T19:07:38.903Z,21.42
2023-05-18T19:12:44.144Z,21.67
2023-05-18T19:17:46.746Z,21.68
2023-05-18T19:22:49.036Z,21.52
2023-05-18T19:27:54.927Z,21.50
2023-05-18T19:32:57.384Z,21.55
2023-05-18T19:38:00.858Z,21.34
2023-05-18T19:43:03.290Z,21.61
2023-05-18T19:48:06.011Z,21.23
2023-05-18T19:53:08.306Z,21.26
2023-05-18T19:58:10.722Z,21.43
2023-05-18T20:03:14.866Z,21.46
2023-05-18T20:08:17.188Z,21.33
2023-05-18T20:13:19.664Z,21.10
2023-05-18T20:18:22.261Z,21.07
2023-05-18T20:23:24.983Z,21.02
2023-05-18T20:28:28.204Z,21.14
2023-05-18T20:33:30.614Z,21.07
2023-05-18T20:38:32.990Z,21.30
2023-05-18T20:43:37.995Z,21.03
2023-05-18T20:48:40.632Z,21.32
2023-05-18T20:53:44.252Z,21.32
2023-05-18T20:58:49.016Z,21.05
2023-05-18T21:03:51.376Z,21.01
2023-05-18T21:08:53.749Z,20.87
2023-05-18T21:13:56.048Z,20.35
2023-05-18T21:18:58.383Z,20.48
2023-05-18T21:24:01.669Z,20.37
2023-05-18T21:29:03.909Z,20.33
2023-05-18T21:34:11.662Z,20.43
2023-05-18T21:39:14.169Z,20.48
2023-05-18T21:44:17.406Z,20.36
2023-05-18T21:49:19.644Z,20.23
2023-05-18T21:54:22.011Z,20.13
2023-05-18T21:59:24.365Z,19.93
2023-05-18T22:04:27.206Z,19.92
2023-05-18T22:09:29.970Z,20.13
2023-05-18T22:14:33.262Z,19.84
2023-05-18T22:19:35.649Z,19.78
2023-05-18T22:24:37.862Z,19.82
2023-05-18T22:29:40.129Z,19.66
2023-05-18T22:34:42.361Z,19.85
2023-05-18T22:39:44.862Z,19.32
2023-05-18T22:44:47.187Z,19.69
2023-05-18T22:49:50.064Z,19.71
2023-05-18T22:54:52.554Z,19.86
2023-05-18T22:59:54.917Z,19.77
2023-05-18T23:04:57.752Z,19.69
2023-05-18T23:09:59.978Z,19.71
2023-05-18T23:15:03.031Z,19.70
2023-05-18T23:20:08.742Z,19.97
2023-05-18T23:25:11.502Z,19.83
2023-05-18T23:30:13.972Z,19.77
2023-05-18T23:35:16.921Z,20.04
2023-05-18T23:40:19.889Z,20.03
2023-05-18T23:45:22.478Z,19.97
2023-05-18T23:50:25.036Z,19.92
2023-05-18T23:55:28.361Z,19.92
